sensor_id;sensor_type;location;lat;lon;timestamp;P1;durP1;ratioP1;P2;durP2;ratioP2
35917;SDS011;22011;59.912;30.300;2023-04-25T00:02:05;22.48;;;14.48;;
35917;SDS011;22011;59.912;30.300;2023-04-25T00:04:35;20.38;;;13.65;;
35917;SDS011;22011;59.912;30.300;2023-04-25T00:07:03;22.03;;;14.50;;
35917;SDS011;22011;59.912;30.300;2023-04-25T00:09:31;20.88;;;14.52;;
35917;SDS011;22011;59.912;30.300;2023-04-25T00:11:59;20.00;;;14.25;;
35917;SDS011;22011;59.912;30.300;2023-04-25T00:14:27;20.42;;;14.15;;
35917;SDS011;22011;59.912;30.300;2023-04-25T00:16:54;21.33;;;14.05;;
35917;SDS011;22011;59.912;30.300;2023-04-25T00:19:22;20.77;;;14.25;;
35917;SDS011;22011;59.912;30.300;2023-04-25T00:21:51;22.58;;;14.45;;
35917;SDS011;22011;59.912;30.300;2023-04-25T00:24:19;22.08;;;14.07;;
35917;SDS011;22011;59.912;30.300;2023-04-25T00:26:46;20.77;;;15.13;;
35917;SDS011;22011;59.912;30.300;2023-04-25T00:29:14;22.08;;;14.55;;
35917;SDS011;22011;59.912;30.300;2023-04-25T00:31:42;20.85;;;14.73;;
35917;SDS011;22011;59.912;30.300;2023-04-25T00:34:09;25.15;;;15.38;;
35917;SDS011;22011;59.912;30.300;2023-04-25T00:36:37;27.08;;;15.27;;
35917;SDS011;22011;59.912;30.300;2023-04-25T00:39:06;25.63;;;15.52;;
35917;SDS011;22011;59.912;30.300;2023-04-25T00:41:33;19.23;;;13.98;;
35917;SDS011;22011;59.912;30.300;2023-04-25T00:44:01;20.05;;;14.60;;
35917;SDS011;22011;59.912;30.300;2023-04-25T00:46:31;29.52;;;14.82;;
35917;SDS011;22011;59.912;30.300;2023-04-25T00:48:59;22.30;;;14.63;;
35917;SDS011;22011;59.912;30.300;2023-04-25T00:51:26;23.70;;;14.70;;
35917;SDS011;22011;59.912;30.300;2023-04-25T00:53:53;25.65;;;13.88;;
35917;SDS011;22011;59.912;30.300;2023-04-25T00:56:23;25.45;;;14.35;;
35917;SDS011;22011;59.912;30.300;2023-04-25T00:58:51;22.60;;;14.25;;
35917;SDS011;22011;59.912;30.300;2023-04-25T01:03:48;20.98;;;12.57;;
35917;SDS011;22011;59.912;30.300;2023-04-25T01:06:16;19.90;;;13.13;;
35917;SDS011;22011;59.912;30.300;2023-04-25T01:08:44;27.23;;;13.35;;
35917;SDS011;22011;59.912;30.300;2023-04-25T01:11:12;20.88;;;12.98;;
35917;SDS011;22011;59.912;30.300;2023-04-25T01:13:41;19.20;;;12.90;;
35917;SDS011;22011;59.912;30.300;2023-04-25T01:16:08;21.77;;;11.98;;
35917;SDS011;22011;59.912;30.300;2023-04-25T01:18:36;13.55;;;11.60;;
35917;SDS011;22011;59.912;30.300;2023-04-25T01:21:08;19.00;;;12.48;;
35917;SDS011;22011;59.912;30.300;2023-04-25T01:23:36;18.02;;;12.55;;
35917;SDS011;22011;59.912;30.300;2023-04-25T01:26:06;23.77;;;12.20;;
35917;SDS011;22011;59.912;30.300;2023-04-25T01:28:35;18.83;;;11.23;;
35917;SDS011;22011;59.912;30.300;2023-04-25T01:31:03;19.85;;;11.65;;
35917;SDS011;22011;59.912;30.300;2023-04-25T01:33:31;14.77;;;11.43;;
35917;SDS011;22011;59.912;30.300;2023-04-25T01:36:00;19.63;;;11.52;;
35917;SDS011;22011;59.912;30.300;2023-04-25T01:38:29;16.80;;;11.90;;
35917;SDS011;22011;59.912;30.300;2023-04-25T01:40:57;16.83;;;12.05;;
35917;SDS011;22011;59.912;30.300;2023-04-25T01:43:25;18.95;;;11.95;;
35917;SDS011;22011;59.912;30.300;2023-04-25T01:45:53;18.17;;;11.57;;
35917;SDS011;22011;59.912;30.300;2023-04-25T01:48:21;14.77;;;10.88;;
35917;SDS011;22011;59.912;30.300;2023-04-25T01:50:49;22.73;;;10.75;;
35917;SDS011;22011;59.912;30.300;2023-04-25T01:53:17;12.73;;;10.02;;
35917;SDS011;22011;59.912;30.300;2023-04-25T01:55:47;15.15;;;10.50;;
35917;SDS011;22011;59.912;30.300;2023-04-25T01:58:17;13.85;;;10.02;;
35917;SDS011;22011;59.912;30.300;2023-04-25T02:01:11;14.95;;;10.10;;
35917;SDS011;22011;59.912;30.300;2023-04-25T02:03:44;20.95;;;11.55;;
35917;SDS011;22011;59.912;30.300;2023-04-25T02:06:30;15.48;;;11.02;;
35917;SDS011;22011;59.912;30.300;2023-04-25T02:08:58;16.85;;;11.18;;
35917;SDS011;22011;59.912;30.300;2023-04-25T02:11:27;21.95;;;12.25;;
35917;SDS011;22011;59.912;30.300;2023-04-25T02:14:14;15.95;;;10.60;;
35917;SDS011;22011;59.912;30.300;2023-04-25T02:17:05;15.57;;;10.18;;
35917;SDS011;22011;59.912;30.300;2023-04-25T02:19:32;16.60;;;10.15;;
35917;SDS011;22011;59.912;30.300;2023-04-25T02:22:00;19.55;;;9.40;;
35917;SDS011;22011;59.912;30.300;2023-04-25T02:24:28;15.45;;;8.68;;
35917;SDS011;22011;59.912;30.300;2023-04-25T02:26:57;13.50;;;9.05;;
35917;SDS011;22011;59.912;30.300;2023-04-25T02:29:25;15.85;;;9.65;;
35917;SDS011;22011;59.912;30.300;2023-04-25T02:31:52;14.32;;;8.20;;
35917;SDS011;22011;59.912;30.300;2023-04-25T02:34:20;14.65;;;8.82;;
35917;SDS011;22011;59.912;30.300;2023-04-25T02:36:48;16.27;;;8.88;;
35917;SDS011;22011;59.912;30.300;2023-04-25T02:39:17;14.65;;;8.20;;
35917;SDS011;22011;59.912;30.300;2023-04-25T02:41:45;13.50;;;7.38;;
35917;SDS011;22011;59.912;30.300;2023-04-25T02:44:14;12.95;;;8.15;;
35917;SDS011;22011;59.912;30.300;2023-04-25T02:46:41;11.82;;;7.45;;
35917;SDS011;22011;59.912;30.300;2023-04-25T02:49:09;10.77;;;6.18;;
35917;SDS011;22011;59.912;30.300;2023-04-25T02:51:36;7.93;;;5.97;;
35917;SDS011;22011;59.912;30.300;2023-04-25T02:54:04;13.35;;;6.15;;
35917;SDS011;22011;59.912;30.300;2023-04-25T02:56:36;7.65;;;5.97;;
35917;SDS011;22011;59.912;30.300;2023-04-25T02:59:08;9.68;;;5.70;;
35917;SDS011;22011;59.912;30.300;2023-04-25T03:01:37;17.63;;;6.13;;
35917;SDS011;22011;59.912;30.300;2023-04-25T03:04:05;11.40;;;5.80;;
35917;SDS011;22011;59.912;30.300;2023-04-25T03:06:32;8.55;;;5.32;;
35917;SDS011;22011;59.912;30.300;2023-04-25T03:09:00;8.32;;;5.22;;
35917;SDS011;22011;59.912;30.300;2023-04-25T03:11:28;9.60;;;5.43;;
35917;SDS011;22011;59.912;30.300;2023-04-25T03:13:56;13.13;;;5.20;;
35917;SDS011;22011;59.912;30.300;2023-04-25T03:16:23;9.90;;;5.25;;
35917;SDS011;22011;59.912;30.300;2023-04-25T03:18:52;11.45;;;5.43;;
35917;SDS011;22011;59.912;30.300;2023-04-25T03:21:20;19.50;;;5.50;;
35917;SDS011;22011;59.912;30.300;2023-04-25T03:23:47;9.18;;;5.07;;
35917;SDS011;22011;59.912;30.300;2023-04-25T03:26:15;7.38;;;4.53;;
35917;SDS011;22011;59.912;30.300;2023-04-25T03:28:42;9.32;;;4.55;;
35917;SDS011;22011;59.912;30.300;2023-04-25T03:31:10;13.45;;;4.57;;
35917;SDS011;22011;59.912;30.300;2023-04-25T03:33:37;11.20;;;4.72;;
35917;SDS011;22011;59.912;30.300;2023-04-25T03:36:07;7.82;;;4.60;;
35917;SDS011;22011;59.912;30.300;2023-04-25T03:41:04;15.18;;;5.68;;
35917;SDS011;22011;59.912;30.300;2023-04-25T03:43:58;16.92;;;4.90;;
35917;SDS011;22011;59.912;30.300;2023-04-25T03:46:26;12.73;;;4.90;;
35917;SDS011;22011;59.912;30.300;2023-04-25T03:48:54;14.55;;;5.10;;
35917;SDS011;22011;59.912;30.300;2023-04-25T03:51:28;13.40;;;5.55;;
35917;SDS011;22011;59.912;30.300;2023-04-25T03:53:56;8.80;;;4.50;;
35917;SDS011;22011;59.912;30.300;2023-04-25T03:56:30;18.42;;;4.55;;
35917;SDS011;22011;59.912;30.300;2023-04-25T03:59:05;15.27;;;5.03;;
35917;SDS011;22011;59.912;30.300;2023-04-25T04:01:34;11.02;;;4.53;;
35917;SDS011;22011;59.912;30.300;2023-04-25T04:04:01;9.77;;;4.60;;
35917;SDS011;22011;59.912;30.300;2023-04-25T04:06:31;16.98;;;4.88;;
35917;SDS011;22011;59.912;30.300;2023-04-25T04:09:07;13.63;;;4.88;;
35917;SDS011;22011;59.912;30.300;2023-04-25T04:11:38;9.13;;;4.20;;
35917;SDS011;22011;59.912;30.300;2023-04-25T04:14:06;8.55;;;4.53;;
35917;SDS011;22011;59.912;30.300;2023-04-25T04:16:35;12.18;;;4.35;;
35917;SDS011;22011;59.912;30.300;2023-04-25T04:19:03;10.43;;;4.03;;
35917;SDS011;22011;59.912;30.300;2023-04-25T04:21:32;11.25;;;4.78;;
35917;SDS011;22011;59.912;30.300;2023-04-25T04:24:01;10.70;;;4.75;;
35917;SDS011;22011;59.912;30.300;2023-04-25T04:26:34;5.65;;;4.22;;
35917;SDS011;22011;59.912;30.300;2023-04-25T04:29:28;5.32;;;3.53;;
35917;SDS011;22011;59.912;30.300;2023-04-25T04:32:16;7.53;;;4.18;;
35917;SDS011;22011;59.912;30.300;2023-04-25T04:34:44;9.48;;;4.30;;
35917;SDS011;22011;59.912;30.300;2023-04-25T04:37:16;19.38;;;4.22;;
35917;SDS011;22011;59.912;30.300;2023-04-25T04:39:44;21.00;;;4.90;;
35917;SDS011;22011;59.912;30.300;2023-04-25T04:42:22;14.52;;;4.60;;
35917;SDS011;22011;59.912;30.300;2023-04-25T04:45:11;10.30;;;4.72;;
35917;SDS011;22011;59.912;30.300;2023-04-25T04:47:57;10.77;;;3.85;;
35917;SDS011;22011;59.912;30.300;2023-04-25T04:50:40;9.15;;;4.00;;
35917;SDS011;22011;59.912;30.300;2023-04-25T04:53:25;13.43;;;4.15;;
35917;SDS011;22011;59.912;30.300;2023-04-25T04:55:55;9.18;;;4.50;;
35917;SDS011;22011;59.912;30.300;2023-04-25T04:58:34;21.88;;;4.68;;
35917;SDS011;22011;59.912;30.300;2023-04-25T05:01:19;8.80;;;3.88;;
35917;SDS011;22011;59.912;30.300;2023-04-25T05:03:56;12.38;;;4.50;;
35917;SDS011;22011;59.912;30.300;2023-04-25T05:06:44;8.98;;;4.50;;
35917;SDS011;22011;59.912;30.300;2023-04-25T05:09:32;17.95;;;5.18;;
35917;SDS011;22011;59.912;30.300;2023-04-25T05:12:25;10.38;;;4.50;;
35917;SDS011;22011;59.912;30.300;2023-04-25T05:15:17;15.32;;;4.55;;
35917;SDS011;22011;59.912;30.300;2023-04-25T05:17:51;13.80;;;4.07;;
35917;SDS011;22011;59.912;30.300;2023-04-25T05:20:28;27.67;;;5.32;;
35917;SDS011;22011;59.912;30.300;2023-04-25T05:23:14;12.95;;;5.05;;
35917;SDS011;22011;59.912;30.300;2023-04-25T05:25:43;13.70;;;4.25;;
35917;SDS011;22011;59.912;30.300;2023-04-25T05:28:40;13.98;;;4.40;;
35917;SDS011;22011;59.912;30.300;2023-04-25T05:31:26;13.65;;;4.10;;
35917;SDS011;22011;59.912;30.300;2023-04-25T05:34:04;10.32;;;5.00;;
35917;SDS011;22011;59.912;30.300;2023-04-25T05:36:45;12.75;;;3.47;;
35917;SDS011;22011;59.912;30.300;2023-04-25T05:39:14;25.83;;;4.38;;
35917;SDS011;22011;59.912;30.300;2023-04-25T05:42:22;11.73;;;4.05;;
35917;SDS011;22011;59.912;30.300;2023-04-25T05:45:10;19.05;;;4.05;;
35917;SDS011;22011;59.912;30.300;2023-04-25T05:47:51;13.32;;;4.40;;
35917;SDS011;22011;59.912;30.300;2023-04-25T05:50:25;14.48;;;4.90;;
35917;SDS011;22011;59.912;30.300;2023-04-25T05:53:15;13.77;;;5.70;;
35917;SDS011;22011;59.912;30.300;2023-04-25T05:55:43;14.85;;;4.40;;
35917;SDS011;22011;59.912;30.300;2023-04-25T05:58:23;22.95;;;5.38;;
35917;SDS011;22011;59.912;30.300;2023-04-25T06:00:51;24.98;;;5.70;;
35917;SDS011;22011;59.912;30.300;2023-04-25T06:03:18;23.60;;;6.15;;
35917;SDS011;22011;59.912;30.300;2023-04-25T06:05:47;22.05;;;4.90;;
35917;SDS011;22011;59.912;30.300;2023-04-25T06:08:14;30.73;;;5.20;;
35917;SDS011;22011;59.912;30.300;2023-04-25T06:10:42;16.98;;;4.40;;
35917;SDS011;22011;59.912;30.300;2023-04-25T06:13:09;29.55;;;5.68;;
35917;SDS011;22011;59.912;30.300;2023-04-25T06:15:39;26.45;;;5.10;;
35917;SDS011;22011;59.912;30.300;2023-04-25T06:18:06;13.98;;;4.25;;
35917;SDS011;22011;59.912;30.300;2023-04-25T06:20:34;31.65;;;5.10;;
35917;SDS011;22011;59.912;30.300;2023-04-25T06:23:01;22.92;;;4.55;;
35917;SDS011;22011;59.912;30.300;2023-04-25T06:25:42;21.63;;;4.50;;
35917;SDS011;22011;59.912;30.300;2023-04-25T06:28:10;19.08;;;4.63;;
35917;SDS011;22011;59.912;30.300;2023-04-25T06:30:39;16.13;;;4.72;;
35917;SDS011;22011;59.912;30.300;2023-04-25T06:33:11;18.35;;;4.40;;
35917;SDS011;22011;59.912;30.300;2023-04-25T06:35:40;16.63;;;3.88;;
35917;SDS011;22011;59.912;30.300;2023-04-25T06:38:10;11.82;;;3.53;;
35917;SDS011;22011;59.912;30.300;2023-04-25T06:40:40;10.40;;;4.22;;
35917;SDS011;22011;59.912;30.300;2023-04-25T06:43:09;10.13;;;3.55;;
35917;SDS011;22011;59.912;30.300;2023-04-25T06:45:55;17.73;;;5.78;;
35917;SDS011;22011;59.912;30.300;2023-04-25T06:48:25;30.55;;;6.90;;
35917;SDS011;22011;59.912;30.300;2023-04-25T06:50:53;16.48;;;4.20;;
35917;SDS011;22011;59.912;30.300;2023-04-25T06:53:20;9.57;;;3.47;;
35917;SDS011;22011;59.912;30.300;2023-04-25T06:55:54;17.52;;;4.18;;
35917;SDS011;22011;59.912;30.300;2023-04-25T06:58:23;24.23;;;4.97;;
35917;SDS011;22011;59.912;30.300;2023-04-25T07:01:28;14.60;;;4.00;;
35917;SDS011;22011;59.912;30.300;2023-04-25T07:03:57;13.13;;;3.65;;
35917;SDS011;22011;59.912;30.300;2023-04-25T07:06:25;13.60;;;3.63;;
35917;SDS011;22011;59.912;30.300;2023-04-25T07:08:55;8.95;;;2.83;;
35917;SDS011;22011;59.912;30.300;2023-04-25T07:11:23;7.20;;;3.15;;
35917;SDS011;22011;59.912;30.300;2023-04-25T07:13:50;16.27;;;3.35;;
35917;SDS011;22011;59.912;30.300;2023-04-25T07:16:18;9.40;;;3.88;;
35917;SDS011;22011;59.912;30.300;2023-04-25T07:18:47;17.25;;;3.53;;
35917;SDS011;22011;59.912;30.300;2023-04-25T07:21:15;23.42;;;4.15;;
35917;SDS011;22011;59.912;30.300;2023-04-25T07:23:45;9.27;;;2.83;;
35917;SDS011;22011;59.912;30.300;2023-04-25T07:26:18;16.17;;;3.33;;
35917;SDS011;22011;59.912;30.300;2023-04-25T07:29:05;14.98;;;3.40;;
35917;SDS011;22011;59.912;30.300;2023-04-25T07:31:33;12.38;;;4.07;;
35917;SDS011;22011;59.912;30.300;2023-04-25T07:34:02;8.35;;;3.50;;
35917;SDS011;22011;59.912;30.300;2023-04-25T07:36:30;8.63;;;3.60;;
35917;SDS011;22011;59.912;30.300;2023-04-25T07:38:58;14.30;;;3.90;;
35917;SDS011;22011;59.912;30.300;2023-04-25T07:41:25;12.40;;;2.75;;
35917;SDS011;22011;59.912;30.300;2023-04-25T07:43:53;6.32;;;2.90;;
35917;SDS011;22011;59.912;30.300;2023-04-25T07:46:21;19.52;;;3.80;;
35917;SDS011;22011;59.912;30.300;2023-04-25T07:48:49;16.50;;;3.85;;
35917;SDS011;22011;59.912;30.300;2023-04-25T07:51:19;14.70;;;3.60;;
35917;SDS011;22011;59.912;30.300;2023-04-25T07:53:48;11.68;;;3.38;;
35917;SDS011;22011;59.912;30.300;2023-04-25T07:56:16;21.20;;;4.90;;
35917;SDS011;22011;59.912;30.300;2023-04-25T07:58:47;13.40;;;2.80;;
35917;SDS011;22011;59.912;30.300;2023-04-25T08:01:16;19.17;;;2.63;;
35917;SDS011;22011;59.912;30.300;2023-04-25T08:03:53;25.25;;;3.60;;
35917;SDS011;22011;59.912;30.300;2023-04-25T08:06:27;29.35;;;3.92;;
35917;SDS011;22011;59.912;30.300;2023-04-25T08:09:17;31.85;;;3.53;;
35917;SDS011;22011;59.912;30.300;2023-04-25T08:11:46;21.35;;;4.63;;
35917;SDS011;22011;59.912;30.300;2023-04-25T08:14:16;37.13;;;3.97;;
35917;SDS011;22011;59.912;30.300;2023-04-25T08:16:44;36.70;;;4.53;;
35917;SDS011;22011;59.912;30.300;2023-04-25T08:19:13;15.27;;;3.13;;
35917;SDS011;22011;59.912;30.300;2023-04-25T08:21:42;17.40;;;3.03;;
35917;SDS011;22011;59.912;30.300;2023-04-25T08:24:14;24.48;;;3.00;;
35917;SDS011;22011;59.912;30.300;2023-04-25T08:26:42;24.90;;;3.38;;
35917;SDS011;22011;59.912;30.300;2023-04-25T08:29:14;33.42;;;4.10;;
35917;SDS011;22011;59.912;30.300;2023-04-25T08:31:42;10.52;;;2.50;;
35917;SDS011;22011;59.912;30.300;2023-04-25T08:34:10;17.50;;;2.92;;
35917;SDS011;22011;59.912;30.300;2023-04-25T08:36:44;20.65;;;2.45;;
35917;SDS011;22011;59.912;30.300;2023-04-25T08:39:38;14.95;;;2.33;;
35917;SDS011;22011;59.912;30.300;2023-04-25T08:42:29;16.98;;;3.55;;
35917;SDS011;22011;59.912;30.300;2023-04-25T08:45:01;4.90;;;2.22;;
35917;SDS011;22011;59.912;30.300;2023-04-25T08:47:35;22.38;;;2.65;;
35917;SDS011;22011;59.912;30.300;2023-04-25T08:50:06;16.05;;;3.53;;
35917;SDS011;22011;59.912;30.300;2023-04-25T08:52:37;19.88;;;2.97;;
35917;SDS011;22011;59.912;30.300;2023-04-25T08:55:10;35.22;;;3.00;;
35917;SDS011;22011;59.912;30.300;2023-04-25T08:57:40;17.52;;;3.38;;
35917;SDS011;22011;59.912;30.300;2023-04-25T09:00:09;12.05;;;2.75;;
35917;SDS011;22011;59.912;30.300;2023-04-25T09:02:41;17.13;;;3.13;;
35917;SDS011;22011;59.912;30.300;2023-04-25T09:05:10;10.82;;;3.25;;
35917;SDS011;22011;59.912;30.300;2023-04-25T09:07:44;11.02;;;3.00;;
35917;SDS011;22011;59.912;30.300;2023-04-25T09:10:12;13.52;;;2.60;;
35917;SDS011;22011;59.912;30.300;2023-04-25T09:12:40;14.38;;;3.10;;
35917;SDS011;22011;59.912;30.300;2023-04-25T09:15:09;16.05;;;3.25;;
35917;SDS011;22011;59.912;30.300;2023-04-25T09:18:01;15.82;;;3.03;;
35917;SDS011;22011;59.912;30.300;2023-04-25T09:20:41;12.00;;;2.53;;
35917;SDS011;22011;59.912;30.300;2023-04-25T09:23:12;14.98;;;3.33;;
35917;SDS011;22011;59.912;30.300;2023-04-25T09:25:41;6.95;;;3.08;;
35917;SDS011;22011;59.912;30.300;2023-04-25T09:28:10;7.22;;;2.40;;
35917;SDS011;22011;59.912;30.300;2023-04-25T09:30:38;13.82;;;3.50;;
35917;SDS011;22011;59.912;30.300;2023-04-25T09:33:10;14.73;;;2.67;;
35917;SDS011;22011;59.912;30.300;2023-04-25T09:35:43;9.45;;;2.65;;
35917;SDS011;22011;59.912;30.300;2023-04-25T09:38:27;10.02;;;2.72;;
35917;SDS011;22011;59.912;30.300;2023-04-25T09:41:08;5.72;;;2.60;;
35917;SDS011;22011;59.912;30.300;2023-04-25T09:43:42;6.32;;;2.97;;
35917;SDS011;22011;59.912;30.300;2023-04-25T09:46:13;18.25;;;3.10;;
35917;SDS011;22011;59.912;30.300;2023-04-25T09:48:47;23.63;;;3.80;;
35917;SDS011;22011;59.912;30.300;2023-04-25T09:51:20;16.75;;;3.00;;
35917;SDS011;22011;59.912;30.300;2023-04-25T09:53:55;10.73;;;2.08;;
35917;SDS011;22011;59.912;30.300;2023-04-25T09:56:30;12.50;;;2.88;;
35917;SDS011;22011;59.912;30.300;2023-04-25T09:59:05;7.93;;;2.72;;
35917;SDS011;22011;59.912;30.300;2023-04-25T10:01:34;26.48;;;3.30;;
35917;SDS011;22011;59.912;30.300;2023-04-25T10:04:10;18.45;;;2.30;;
35917;SDS011;22011;59.912;30.300;2023-04-25T10:06:41;20.48;;;4.13;;
35917;SDS011;22011;59.912;30.300;2023-04-25T10:09:12;7.85;;;2.50;;
35917;SDS011;22011;59.912;30.300;2023-04-25T10:11:41;19.23;;;2.78;;
35917;SDS011;22011;59.912;30.300;2023-04-25T10:14:08;11.55;;;2.67;;
35917;SDS011;22011;59.912;30.300;2023-04-25T10:16:36;16.70;;;2.90;;
35917;SDS011;22011;59.912;30.300;2023-04-25T10:19:05;7.28;;;2.58;;
35917;SDS011;22011;59.912;30.300;2023-04-25T10:21:34;7.78;;;3.10;;
35917;SDS011;22011;59.912;30.300;2023-04-25T10:24:12;14.48;;;2.55;;
35917;SDS011;22011;59.912;30.300;2023-04-25T10:26:40;17.67;;;2.53;;
35917;SDS011;22011;59.912;30.300;2023-04-25T10:29:08;29.40;;;3.50;;
35917;SDS011;22011;59.912;30.300;2023-04-25T10:31:44;5.47;;;2.70;;
35917;SDS011;22011;59.912;30.300;2023-04-25T10:34:15;15.77;;;2.65;;
35917;SDS011;22011;59.912;30.300;2023-04-25T10:36:44;8.63;;;2.88;;
35917;SDS011;22011;59.912;30.300;2023-04-25T10:39:22;10.65;;;3.38;;
35917;SDS011;22011;59.912;30.300;2023-04-25T10:41:53;33.30;;;2.95;;
35917;SDS011;22011;59.912;30.300;2023-04-25T10:46:49;15.95;;;3.38;;
35917;SDS011;22011;59.912;30.300;2023-04-25T10:49:32;8.77;;;2.50;;
35917;SDS011;22011;59.912;30.300;2023-04-25T10:52:11;7.70;;;2.55;;
35917;SDS011;22011;59.912;30.300;2023-04-25T10:54:41;21.15;;;3.00;;
35917;SDS011;22011;59.912;30.300;2023-04-25T10:57:26;16.33;;;3.22;;
35917;SDS011;22011;59.912;30.300;2023-04-25T10:59:58;16.25;;;3.08;;
35917;SDS011;22011;59.912;30.300;2023-04-25T11:02:27;13.25;;;2.97;;
35917;SDS011;22011;59.912;30.300;2023-04-25T11:04:56;9.15;;;2.90;;
35917;SDS011;22011;59.912;30.300;2023-04-25T11:07:26;6.88;;;3.10;;
35917;SDS011;22011;59.912;30.300;2023-04-25T11:10:02;9.40;;;2.97;;
35917;SDS011;22011;59.912;30.300;2023-04-25T11:12:31;11.90;;;2.95;;
35917;SDS011;22011;59.912;30.300;2023-04-25T11:14:59;28.60;;;4.80;;
35917;SDS011;22011;59.912;30.300;2023-04-25T11:17:30;30.23;;;3.47;;
35917;SDS011;22011;59.912;30.300;2023-04-25T11:19:59;13.68;;;2.65;;
35917;SDS011;22011;59.912;30.300;2023-04-25T11:22:28;17.05;;;3.40;;
35917;SDS011;22011;59.912;30.300;2023-04-25T11:24:56;16.23;;;2.88;;
35917;SDS011;22011;59.912;30.300;2023-04-25T11:27:24;9.90;;;2.97;;
35917;SDS011;22011;59.912;30.300;2023-04-25T11:29:52;15.05;;;3.22;;
35917;SDS011;22011;59.912;30.300;2023-04-25T11:32:20;7.10;;;3.08;;
35917;SDS011;22011;59.912;30.300;2023-04-25T11:34:47;22.17;;;2.88;;
35917;SDS011;22011;59.912;30.300;2023-04-25T11:37:15;21.80;;;3.63;;
35917;SDS011;22011;59.912;30.300;2023-04-25T11:39:43;14.18;;;3.35;;
35917;SDS011;22011;59.912;30.300;2023-04-25T11:42:12;7.38;;;3.28;;
35917;SDS011;22011;59.912;30.300;2023-04-25T11:44:41;10.32;;;3.30;;
35917;SDS011;22011;59.912;30.300;2023-04-25T11:47:08;15.02;;;2.60;;
35917;SDS011;22011;59.912;30.300;2023-04-25T11:49:36;9.43;;;3.00;;
35917;SDS011;22011;59.912;30.300;2023-04-25T11:52:05;9.50;;;2.85;;
35917;SDS011;22011;59.912;30.300;2023-04-25T11:54:35;8.13;;;2.88;;
35917;SDS011;22011;59.912;30.300;2023-04-25T11:57:03;5.17;;;2.97;;
35917;SDS011;22011;59.912;30.300;2023-04-25T11:59:30;12.95;;;3.85;;
35917;SDS011;22011;59.912;30.300;2023-04-25T12:01:59;12.68;;;3.00;;
35917;SDS011;22011;59.912;30.300;2023-04-25T12:04:29;10.98;;;3.45;;
35917;SDS011;22011;59.912;30.300;2023-04-25T12:06:58;19.35;;;3.42;;
35917;SDS011;22011;59.912;30.300;2023-04-25T12:09:28;10.75;;;3.03;;
35917;SDS011;22011;59.912;30.300;2023-04-25T12:11:57;19.73;;;3.30;;
35917;SDS011;22011;59.912;30.300;2023-04-25T12:14:29;20.23;;;3.42;;
35917;SDS011;22011;59.912;30.300;2023-04-25T12:16:59;8.38;;;3.22;;
35917;SDS011;22011;59.912;30.300;2023-04-25T12:19:31;14.85;;;3.65;;
35917;SDS011;22011;59.912;30.300;2023-04-25T12:22:00;12.07;;;3.08;;
35917;SDS011;22011;59.912;30.300;2023-04-25T12:24:29;14.98;;;4.28;;
35917;SDS011;22011;59.912;30.300;2023-04-25T12:26:58;16.45;;;4.18;;
35917;SDS011;22011;59.912;30.300;2023-04-25T12:29:27;16.35;;;4.40;;
35917;SDS011;22011;59.912;30.300;2023-04-25T12:31:57;27.08;;;4.00;;
35917;SDS011;22011;59.912;30.300;2023-04-25T12:34:27;15.25;;;3.60;;
35917;SDS011;22011;59.912;30.300;2023-04-25T12:36:55;20.13;;;4.13;;
35917;SDS011;22011;59.912;30.300;2023-04-25T12:39:24;11.20;;;3.67;;
35917;SDS011;22011;59.912;30.300;2023-04-25T12:41:51;25.87;;;3.93;;
35917;SDS011;22011;59.912;30.300;2023-04-25T12:44:20;19.08;;;3.72;;
35917;SDS011;22011;59.912;30.300;2023-04-25T12:46:48;14.48;;;3.50;;
35917;SDS011;22011;59.912;30.300;2023-04-25T12:49:16;20.63;;;4.00;;
35917;SDS011;22011;59.912;30.300;2023-04-25T12:51:44;7.28;;;3.45;;
35917;SDS011;22011;59.912;30.300;2023-04-25T12:54:12;15.98;;;3.25;;
35917;SDS011;22011;59.912;30.300;2023-04-25T12:56:40;15.63;;;3.30;;
35917;SDS011;22011;59.912;30.300;2023-04-25T12:59:08;10.48;;;3.13;;
35917;SDS011;22011;59.912;30.300;2023-04-25T13:01:36;13.52;;;2.65;;
35917;SDS011;22011;59.912;30.300;2023-04-25T13:04:04;8.73;;;3.22;;
35917;SDS011;22011;59.912;30.300;2023-04-25T13:06:31;12.45;;;3.75;;
35917;SDS011;22011;59.912;30.300;2023-04-25T13:09:00;14.05;;;4.00;;
35917;SDS011;22011;59.912;30.300;2023-04-25T13:13:56;10.60;;;3.17;;
35917;SDS011;22011;59.912;30.300;2023-04-25T13:16:24;15.32;;;4.03;;
35917;SDS011;22011;59.912;30.300;2023-04-25T13:18:52;19.13;;;3.00;;
35917;SDS011;22011;59.912;30.300;2023-04-25T13:21:21;20.27;;;4.68;;
35917;SDS011;22011;59.912;30.300;2023-04-25T13:23:49;12.15;;;3.22;;
35917;SDS011;22011;59.912;30.300;2023-04-25T13:26:18;12.52;;;3.25;;
35917;SDS011;22011;59.912;30.300;2023-04-25T13:28:45;12.00;;;3.10;;
35917;SDS011;22011;59.912;30.300;2023-04-25T13:31:13;19.45;;;3.40;;
35917;SDS011;22011;59.912;30.300;2023-04-25T13:33:40;20.27;;;3.75;;
35917;SDS011;22011;59.912;30.300;2023-04-25T13:36:08;15.65;;;3.33;;
35917;SDS011;22011;59.912;30.300;2023-04-25T13:38:36;15.45;;;3.33;;
35917;SDS011;22011;59.912;30.300;2023-04-25T13:41:04;16.73;;;3.58;;
35917;SDS011;22011;59.912;30.300;2023-04-25T13:43:34;33.13;;;5.15;;
35917;SDS011;22011;59.912;30.300;2023-04-25T13:46:01;37.17;;;4.40;;
35917;SDS011;22011;59.912;30.300;2023-04-25T13:48:29;22.58;;;3.65;;
35917;SDS011;22011;59.912;30.300;2023-04-25T13:50:57;9.63;;;2.75;;
35917;SDS011;22011;59.912;30.300;2023-04-25T13:53:24;17.20;;;3.67;;
35917;SDS011;22011;59.912;30.300;2023-04-25T13:55:52;12.27;;;3.47;;
35917;SDS011;22011;59.912;30.300;2023-04-25T13:58:19;16.25;;;4.22;;
35917;SDS011;22011;59.912;30.300;2023-04-25T14:00:48;17.88;;;3.78;;
35917;SDS011;22011;59.912;30.300;2023-04-25T14:03:16;21.15;;;4.22;;
35917;SDS011;22011;59.912;30.300;2023-04-25T14:05:43;20.48;;;3.30;;
35917;SDS011;22011;59.912;30.300;2023-04-25T14:08:11;18.17;;;3.08;;
35917;SDS011;22011;59.912;30.300;2023-04-25T14:10:39;10.80;;;3.72;;
35917;SDS011;22011;59.912;30.300;2023-04-25T14:13:06;17.40;;;4.13;;
35917;SDS011;22011;59.912;30.300;2023-04-25T14:15:34;26.10;;;3.63;;
35917;SDS011;22011;59.912;30.300;2023-04-25T14:18:03;11.50;;;3.90;;
35917;SDS011;22011;59.912;30.300;2023-04-25T14:20:31;13.63;;;3.60;;
35917;SDS011;22011;59.912;30.300;2023-04-25T14:22:58;13.05;;;4.50;;
35917;SDS011;22011;59.912;30.300;2023-04-25T14:25:27;17.63;;;3.85;;
35917;SDS011;22011;59.912;30.300;2023-04-25T14:27:55;19.48;;;3.30;;
35917;SDS011;22011;59.912;30.300;2023-04-25T14:30:22;11.02;;;2.60;;
35917;SDS011;22011;59.912;30.300;2023-04-25T14:32:50;11.60;;;2.80;;
35917;SDS011;22011;59.912;30.300;2023-04-25T14:35:18;8.65;;;3.25;;
35917;SDS011;22011;59.912;30.300;2023-04-25T14:37:46;10.30;;;2.60;;
35917;SDS011;22011;59.912;30.300;2023-04-25T14:40:14;10.75;;;3.10;;
35917;SDS011;22011;59.912;30.300;2023-04-25T14:42:42;10.88;;;3.10;;
35917;SDS011;22011;59.912;30.300;2023-04-25T14:45:11;11.15;;;3.35;;
35917;SDS011;22011;59.912;30.300;2023-04-25T14:47:39;9.73;;;3.07;;
35917;SDS011;22011;59.912;30.300;2023-04-25T14:50:07;6.95;;;2.78;;
35917;SDS011;22011;59.912;30.300;2023-04-25T14:52:37;5.43;;;2.47;;
35917;SDS011;22011;59.912;30.300;2023-04-25T14:55:04;18.60;;;2.67;;